Time;durP1;ratioP1;P1;durP2;ratioP2;P2;SDS_P1;SDS_P2;PMS_P1;PMS_P2;Temp;Humidity;BMP_temperature;BMP_pressure;BME280_temperature;BME280_humidity;BME280_pressure;Samples;Min_cycle;Max_cycle;Signal;HPM_P1;HPM_P2
2022/06/01 00:00:37;;;;;;;12.50;11.25;;;9.50;99.90;;;;;;4987117;28;20043;-81
2022/06/01 00:03:03;;;;;;;15.43;12.32;;;9.50;99.90;;;;;;4985866;28;20041;-81
2022/06/01 00:05:28;;;;;;;12.48;11.18;;;9.50;99.90;;;;;;4986033;28;20476;-81
2022/06/01 00:07:54;;;;;;;13.68;12.05;;;9.50;99.90;;;;;;4983636;28;20125;-82
2022/06/01 00:10:20;;;;;;;13.55;11.70;;;9.50;99.90;;;;;;5000133;28;20076;-81
2022/06/01 00:12:47;;;;;;;12.68;11.40;;;9.60;99.90;;;;;;4981910;28;20046;-81
2022/06/01 00:15:18;;;;;;;13.25;11.95;;;9.60;99.90;;;;;;5007864;28;20046;-81
2022/06/01 00:17:43;;;;;;;13.35;11.95;;;9.60;99.90;;;;;;4981290;28;20598;-82
2022/06/01 00:20:10;;;;;;;12.63;11.43;;;9.60;99.90;;;;;;4984839;28;20042;-81
2022/06/01 00:22:36;;;;;;;13.93;11.68;;;9.60;99.90;;;;;;4991524;28;20038;-82
2022/06/01 00:25:07;;;;;;;14.85;11.75;;;9.60;99.90;;;;;;4995234;28;20068;-82
2022/06/01 00:27:35;;;;;;;13.65;11.18;;;9.60;99.90;;;;;;5001301;28;20061;-81
2022/06/01 00:30:02;;;;;;;16.70;14.15;;;9.60;99.90;;;;;;4963913;28;20125;-82
2022/06/01 00:32:28;;;;;;;13.88;12.48;;;9.60;99.90;;;;;;4978849;28;20064;-81
2022/06/01 00:34:54;;;;;;;15.77;13.18;;;9.60;99.90;;;;;;4996427;28;20050;-81
2022/06/01 00:37:20;;;;;;;13.88;12.38;;;9.70;99.90;;;;;;4981821;28;20085;-81
2022/06/01 00:39:47;;;;;;;12.38;10.55;;;9.70;99.90;;;;;;4984619;28;20109;-82
2022/06/01 00:42:19;;;;;;;11.55;10.40;;;9.60;99.90;;;;;;4998196;28;20171;-81
2022/06/01 00:44:46;;;;;;;12.68;11.05;;;9.60;99.90;;;;;;4984891;28;20041;-82
2022/06/01 00:47:15;;;;;;;13.57;11.30;;;9.60;99.90;;;;;;4980247;28;20141;-82
2022/06/01 00:49:46;;;;;;;12.20;10.77;;;9.60;99.90;;;;;;5004921;28;20747;-82
2022/06/01 00:52:12;;;;;;;13.25;11.52;;;9.50;99.90;;;;;;4971159;28;20389;-81
2022/06/01 00:54:39;;;;;;;11.80;10.60;;;9.50;99.90;;;;;;4982513;28;20125;-81
2022/06/01 00:57:10;;;;;;;13.48;11.20;;;9.50;99.90;;;;;;4995740;28;20524;-82
2022/06/01 00:59:40;;;;;;;15.15;12.65;;;9.40;99.90;;;;;;5007263;28;20317;-81
2022/06/01 01:02:08;;;;;;;15.27;12.85;;;9.50;99.90;;;;;;4982517;28;20517;-82
2022/06/01 01:04:35;;;;;;;16.10;13.68;;;9.50;99.90;;;;;;5012403;28;20516;-82
2022/06/01 01:07:06;;;;;;;14.40;12.43;;;9.50;99.90;;;;;;4985940;28;20054;-82
2022/06/01 01:09:34;;;;;;;15.07;13.55;;;9.50;99.90;;;;;;4982032;28;20054;-81
2022/06/01 01:12:06;;;;;;;16.95;15.15;;;9.60;99.90;;;;;;5013591;28;20401;-82
2022/06/01 01:14:35;;;;;;;15.32;13.52;;;9.70;99.90;;;;;;4981741;28;20031;-81
2022/06/01 01:17:04;;;;;;;22.98;16.63;;;9.60;99.90;;;;;;4983652;28;20102;-82
2022/06/01 01:19:46;;;;;;;17.83;15.93;;;9.70;99.90;;;;;;4994949;28;20046;-81
2022/06/01 01:22:33;;;;;;;22.50;15.32;;;9.70;99.90;;;;;;4978437;28;20537;-81
2022/06/01 01:25:08;;;;;;;15.93;14.25;;;9.70;99.90;;;;;;4984916;28;20092;-82
2022/06/01 01:27:34;;;;;;;;;;;9.70;99.90;;;;;;4983799;28;20472;-82
2022/06/01 01:30:00;;;;;;;17.13;15.32;;;9.80;99.90;;;;;;4990083;28;19939;-82
2022/06/01 01:32:25;;;;;;;15.13;13.18;;;9.80;99.90;;;;;;4995421;28;20050;-81
2022/06/01 01:34:51;;;;;;;15.98;13.77;;;9.80;99.90;;;;;;4980265;28;20134;-81
2022/06/01 01:37:22;;;;;;;18.45;16.40;;;9.80;99.90;;;;;;4986500;28;20046;-81
2022/06/01 01:39:51;;;;;;;18.13;15.63;;;9.80;99.90;;;;;;4979969;28;20369;-82
2022/06/01 01:42:17;;;;;;;17.13;14.98;;;9.80;99.90;;;;;;4981083;28;20224;-82
2022/06/01 01:45:04;;;;;;;18.58;15.98;;;9.80;99.90;;;;;;4997006;28;20402;-82
2022/06/01 01:47:29;;;;;;;20.15;17.70;;;9.80;99.90;;;;;;4997392;28;20046;-82
2022/06/01 01:49:55;;;;;;;18.35;15.65;;;9.90;99.90;;;;;;4990489;28;20049;-82
2022/06/01 01:52:21;;;;;;;16.85;15.02;;;9.90;99.90;;;;;;4987392;28;20132;-83
2022/06/01 01:54:46;;;;;;;18.27;15.52;;;9.80;99.90;;;;;;4984309;28;20074;-83
2022/06/01 01:57:18;;;;;;;18.00;15.88;;;9.80;99.90;;;;;;4983283;28;20481;-83
2022/06/01 01:59:50;;;;;;;19.25;16.75;;;9.80;99.90;;;;;;4986155;28;20042;-82
2022/06/01 02:02:22;;;;;;;17.88;15.98;;;9.80;99.90;;;;;;5014247;28;20100;-82
2022/06/01 02:08:23;;;;;;;16.92;15.07;;;9.80;99.90;;;;;;4993285;28;20060;-82
2022/06/01 02:13:39;;;;;;;17.42;15.73;;;9.80;99.90;;;;;;4982536;28;20070;-82
2022/06/01 02:16:06;;;;;;;19.67;17.58;;;9.80;99.90;;;;;;4988803;28;20051;-82
2022/06/01 02:18:38;;;;;;;20.33;17.92;;;9.80;99.90;;;;;;5011074;28;20117;-82
2022/06/01 02:21:09;;;;;;;22.02;19.60;;;9.80;99.90;;;;;;4996551;28;20116;-81
2022/06/01 02:23:36;;;;;;;20.38;18.17;;;9.80;99.90;;;;;;4984388;28;20035;-82
2022/06/01 02:26:02;;;;;;;22.05;18.90;;;9.70;99.90;;;;;;4983254;28;20049;-82
2022/06/01 02:28:29;;;;;;;25.58;20.80;;;9.70;99.90;;;;;;4984919;28;20050;-82
2022/06/01 02:30:57;;;;;;;23.92;18.98;;;9.80;99.90;;;;;;5000152;28;20075;-82
2022/06/01 02:33:32;;;;;;;22.30;19.58;;;9.70;99.90;;;;;;5001855;28;20369;-81
2022/06/01 02:36:00;;;;;;;20.40;18.25;;;9.70;99.90;;;;;;4989172;28;20049;-81
2022/06/01 02:38:47;;;;;;;22.70;19.10;;;9.70;99.90;;;;;;4994997;28;20046;-81
2022/06/01 02:43:58;;;;;;;21.35;18.25;;;9.70;99.90;;;;;;5001264;28;20049;-81
2022/06/01 02:46:25;;;;;;;19.73;17.60;;;9.70;99.90;;;;;;4990081;28;20420;-81
2022/06/01 02:48:51;;;;;;;19.92;17.90;;;9.70;99.90;;;;;;4986007;28;20061;-81
2022/06/01 02:51:18;;;;;;;20.92;18.75;;;9.80;99.90;;;;;;5001239;28;20038;-82
2022/06/01 02:53:47;;;;;;;24.15;19.58;;;9.70;99.90;;;;;;5002198;28;20050;-81
2022/06/01 02:56:13;;;;;;;26.15;20.50;;;9.80;1.00;;;;;;4979343;28;20264;-81
2022/06/01 02:58:39;;;;;;;21.40;19.00;;;9.80;1.00;;;;;;4982689;28;20046;-82
2022/06/01 03:01:06;;;;;;;26.27;19.02;;;9.90;1.00;;;;;;4982164;28;20038;-82
2022/06/01 03:03:33;;;;;;;23.45;19.00;;;9.90;1.00;;;;;;4999259;28;20045;-81
2022/06/01 03:05:59;;;;;;;23.33;19.88;;;10.00;1.00;;;;;;4986110;28;20133;-81
2022/06/01 03:08:25;;;;;;;22.35;19.35;;;10.00;1.00;;;;;;4988863;28;20121;-81
2022/06/01 03:10:51;;;;;;;22.85;20.38;;;10.00;1.00;;;;;;4998073;28;20065;-81
2022/06/01 03:13:19;;;;;;;22.02;19.60;;;10.00;1.00;;;;;;4983165;28;20120;-81
2022/06/01 03:15:48;;;;;;;22.70;19.38;;;10.00;1.00;;;;;;4987220;28;20030;-81
2022/06/01 03:18:13;;;;;;;20.73;17.90;;;10.00;1.00;;;;;;4988560;28;20500;-81
2022/06/01 03:20:40;;;;;;;20.52;18.30;;;10.10;1.00;;;;;;4985961;28;20046;-81
2022/06/01 03:23:05;;;;;;;22.38;19.15;;;10.00;1.00;;;;;;4984071;28;20416;-81
2022/06/01 03:25:31;;;;;;;24.60;20.02;;;10.10;1.00;;;;;;4997065;28;20038;-81
2022/06/01 03:27:59;;;;;;;25.20;19.15;;;10.00;1.00;;;;;;4982164;28;20046;-82
2022/06/01 03:30:26;;;;;;;24.10;18.50;;;10.10;99.90;;;;;;4988696;28;20034;-82
2022/06/01 03:32:53;;;;;;;22.55;19.73;;;10.10;99.90;;;;;;4981660;28;20049;-81
2022/06/01 03:35:22;;;;;;;26.42;21.17;;;10.10;99.90;;;;;;4986394;28;20042;-81
2022/06/01 03:37:48;;;;;;;24.55;21.02;;;10.10;99.90;;;;;;5011016;28;20054;-81
2022/06/01 03:40:17;;;;;;;21.90;19.60;;;10.10;1.00;;;;;;4984487;28;20049;-81
2022/06/01 03:42:43;;;;;;;23.55;20.38;;;10.20;99.90;;;;;;4985008;28;20074;-81
2022/06/01 03:47:55;;;;;;;25.88;20.45;;;10.20;1.00;;;;;;4981350;28;20085;-81
2022/06/01 03:50:23;;;;;;;22.90;20.40;;;10.20;99.90;;;;;;4988962;28;20042;-81
2022/06/01 03:52:50;;;;;;;21.75;19.35;;;10.10;1.00;;;;;;4982395;28;20050;-81
2022/06/01 03:55:16;;;;;;;25.65;20.73;;;10.10;1.00;;;;;;4988443;28;20026;-81
2022/06/01 03:57:43;;;;;;;23.55;20.58;;;10.20;1.00;;;;;;4996472;28;20046;-81
2022/06/01 04:00:13;;;;;;;23.40;20.77;;;10.10;1.00;;;;;;4986421;28;20049;-81
2022/06/01 04:02:39;;;;;;;23.65;20.10;;;10.10;1.00;;;;;;4981445;28;20126;-81
2022/06/01 04:05:09;;;;;;;22.70;18.15;;;10.20;1.00;;;;;;4983991;28;20110;-81
2022/06/01 04:07:35;;;;;;;23.10;19.13;;;10.20;1.00;;;;;;4999608;28;20038;-82
2022/06/01 04:10:03;;;;;;;23.38;20.00;;;10.30;1.00;;;;;;4979369;28;20121;-81
2022/06/01 04:12:29;;;;;;;22.38;19.27;;;10.30;1.00;;;;;;4979565;28;20056;-81
2022/06/01 04:14:55;;;;;;;24.30;20.13;;;10.30;1.00;;;;;;4980155;28;20575;-81
2022/06/01 04:17:23;;;;;;;21.67;19.38;;;10.40;99.90;;;;;;4977867;28;20038;-82
2022/06/01 04:19:49;;;;;;;22.88;19.52;;;10.40;99.90;;;;;;4995364;28;20450;-81
2022/06/01 04:22:15;;;;;;;22.10;19.15;;;10.40;99.90;;;;;;4996750;28;20363;-81
2022/06/01 04:24:41;;;;;;;21.60;18.92;;;10.40;99.90;;;;;;5002200;28;20441;-81
2022/06/01 04:27:10;;;;;;;22.88;19.92;;;10.50;99.90;;;;;;4982366;28;20077;-82
2022/06/01 04:29:36;;;;;;;24.50;20.08;;;10.50;99.90;;;;;;4997173;28;20390;-83
2022/06/01 04:32:11;;;;;;;22.98;20.58;;;10.50;99.90;;;;;;4995068;28;20057;-82
2022/06/01 04:34:37;;;;;;;23.63;20.67;;;10.50;99.90;;;;;;4991841;28;20489;-82
2022/06/01 04:37:03;;;;;;;23.23;19.17;;;10.50;99.90;;;;;;4986356;28;20049;-82
2022/06/01 04:39:29;;;;;;;27.17;22.67;;;10.50;99.90;;;;;;4987899;28;20026;-82
2022/06/01 04:41:55;;;;;;;22.77;19.40;;;10.50;99.90;;;;;;4995386;28;20429;-82
2022/06/01 04:44:21;;;;;;;25.95;21.63;;;10.50;99.90;;;;;;4984058;28;20065;-81
2022/06/01 04:46:47;;;;;;;23.52;20.58;;;10.60;99.90;;;;;;4997130;28;20497;-82
2022/06/01 04:49:13;;;;;;;22.38;19.98;;;10.60;99.90;;;;;;4995624;28;20121;-81
2022/06/01 04:51:39;;;;;;;22.55;20.17;;;10.60;99.90;;;;;;5008428;28;20053;-81
2022/06/01 04:54:11;;;;;;;23.75;21.23;;;10.50;99.90;;;;;;4985235;28;20042;-82
2022/06/01 04:56:37;;;;;;;27.13;21.08;;;10.50;99.90;;;;;;4981836;28;20210;-82
2022/06/01 04:59:03;;;;;;;23.27;20.85;;;10.40;99.90;;;;;;4984295;28;20304;-81
2022/06/01 05:01:28;;;;;;;23.50;20.98;;;10.40;99.90;;;;;;5008298;28;20474;-82
2022/06/01 05:03:54;;;;;;;22.42;20.05;;;10.40;99.90;;;;;;4980411;28;20137;-81
2022/06/01 05:06:20;;;;;;;24.95;21.45;;;10.50;1.00;;;;;;4986313;28;20045;-81
2022/06/01 05:08:46;;;;;;;25.08;22.40;;;10.60;1.00;;;;;;4982515;28;20137;-82
2022/06/01 05:11:11;;;;;;;24.70;22.10;;;10.80;1.00;;;;;;5011828;28;20050;-81
2022/06/01 05:13:37;;;;;;;27.25;23.30;;;10.90;1.00;;;;;;4982895;28;20038;-81
2022/06/01 05:16:07;;;;;;;26.67;22.30;;;11.00;1.00;;;;;;5001680;28;20077;-81
2022/06/01 05:18:33;;;;;;;28.52;23.17;;;11.20;1.00;;;;;;5012850;28;20089;-81
2022/06/01 05:20:58;;;;;;;24.58;22.00;;;11.20;1.00;;;;;;5002548;28;20451;-81
2022/06/01 05:23:25;;;;;;;27.85;23.05;;;11.40;1.00;;;;;;4989027;28;20039;-81
2022/06/01 05:25:53;;;;;;;25.63;22.98;;;11.40;1.00;;;;;;4984030;28;20026;-81
2022/06/01 05:28:22;;;;;;;27.00;24.05;;;11.50;1.00;;;;;;4982194;28;20121;-81
2022/06/01 05:30:48;;;;;;;25.98;23.13;;;11.60;1.00;;;;;;4987750;28;20209;-81
2022/06/01 05:33:14;;;;;;;23.98;21.48;;;11.70;99.90;;;;;;5005784;28;20053;-81
2022/06/01 05:35:40;;;;;;;26.67;22.17;;;11.70;99.90;;;;;;5004123;28;20330;-81
2022/06/01 05:38:06;;;;;;;23.38;21.00;;;11.90;99.90;;;;;;4999514;28;20082;-81
2022/06/01 05:40:32;;;;;;;23.45;20.73;;;12.00;99.90;;;;;;4989776;28;20074;-81
2022/06/01 05:42:58;;;;;;;24.60;21.10;;;12.00;99.90;;;;;;4984862;28;20119;-81
2022/06/01 05:45:24;;;;;;;23.30;20.67;;;12.10;99.90;;;;;;4981601;28;20038;-81
2022/06/01 05:47:50;;;;;;;22.27;19.95;;;12.10;99.90;;;;;;4998547;28;20038;-81
2022/06/01 05:50:16;;;;;;;23.63;20.50;;;12.20;99.90;;;;;;4980004;28;20042;-81
2022/06/01 05:52:42;;;;;;;21.95;19.75;;;12.20;99.90;;;;;;4981833;28;20121;-81
2022/06/01 05:55:10;;;;;;;22.45;19.77;;;12.20;99.90;;;;;;4975199;28;20441;-81
2022/06/01 05:57:40;;;;;;;21.92;19.63;;;12.30;99.90;;;;;;4975788;28;20044;-81
2022/06/01 06:00:10;;;;;;;21.40;19.30;;;12.30;99.90;;;;;;4992179;28;20038;-81
2022/06/01 06:02:37;;;;;;;18.85;16.95;;;12.50;99.90;;;;;;4986210;28;20039;-81
2022/06/01 06:05:03;;;;;;;20.20;18.08;;;12.50;99.90;;;;;;4974329;28;20137;-81
2022/06/01 06:07:31;;;;;;;19.63;17.63;;;12.50;99.90;;;;;;4974951;28;20049;-82
2022/06/01 06:09:57;;;;;;;18.83;16.83;;;12.50;99.90;;;;;;4974813;28;20042;-81
2022/06/01 06:12:23;;;;;;;18.35;16.13;;;12.70;99.90;;;;;;4975671;28;20038;-81
2022/06/01 06:14:52;;;;;;;17.80;16.00;;;12.80;99.90;;;;;;4989217;28;20491;-81
2022/06/01 06:17:17;;;;;;;17.35;15.57;;;13.00;99.90;;;;;;4995313;28;20090;-81
2022/06/01 06:19:43;;;;;;;16.00;14.50;;;13.00;72.80;;;;;;4987042;28;20580;-81
2022/06/01 06:22:12;;;;;;;17.40;15.70;;;13.10;42.80;;;;;;4988774;28;20038;-81
2022/06/01 06:24:38;;;;;;;17.58;15.88;;;13.20;95.00;;;;;;4983739;28;20046;-81
2022/06/01 06:27:04;;;;;;;16.15;14.55;;;13.20;36.10;;;;;;4986395;28;20049;-81
2022/06/01 06:29:29;;;;;;;15.63;14.02;;;13.10;1.70;;;;;;5016359;28;20058;-81
2022/06/01 06:31:55;;;;;;;15.02;13.27;;;13.30;1.00;;;;;;4986732;28;20062;-81
2022/06/01 06:34:21;;;;;;;15.23;13.63;;;13.30;1.00;;;;;;4981365;28;20042;-81
2022/06/01 06:36:46;;;;;;;15.73;14.13;;;13.50;1.00;;;;;;4982832;28;20729;-81
2022/06/01 06:39:13;;;;;;;15.88;14.23;;;13.60;1.00;;;;;;4979443;28;20061;-81
2022/06/01 06:41:39;;;;;;;16.88;14.73;;;13.70;1.00;;;;;;4985118;28;20050;-81
2022/06/01 06:44:05;;;;;;;14.65;13.20;;;13.50;1.00;;;;;;5001679;28;20874;-81
2022/06/01 06:46:30;;;;;;;15.60;14.00;;;13.60;1.00;;;;;;5004688;28;20046;-81
2022/06/01 06:48:56;;;;;;;14.18;12.77;;;13.70;1.00;;;;;;4982001;28;20046;-81
2022/06/01 06:51:25;;;;;;;15.30;13.80;;;13.60;1.00;;;;;;4994876;28;20042;-81
2022/06/01 06:53:51;;;;;;;14.23;12.82;;;13.70;1.00;;;;;;4990491;28;20089;-81
2022/06/01 06:56:19;;;;;;;16.42;14.57;;;13.60;1.00;;;;;;4988819;28;20360;-83
2022/06/01 06:58:44;;;;;;;15.38;13.77;;;13.60;1.00;;;;;;4974471;28;20042;-83
2022/06/01 07:01:10;;;;;;;16.77;15.07;;;13.60;19.40;;;;;;4972753;28;20136;-82
2022/06/01 07:03:38;;;;;;;17.13;15.40;;;13.40;1.00;;;;;;4975877;28;20126;-83
2022/06/01 07:06:13;;;;;;;16.00;14.25;;;13.50;57.60;;;;;;5004343;28;20054;-82
2022/06/01 07:08:45;;;;;;;16.83;15.18;;;13.50;1.00;;;;;;5002250;28;20296;-82
2022/06/01 07:11:13;;;;;;;17.75;14.98;;;13.40;31.30;;;;;;5007321;28;20096;-81
2022/06/01 07:13:40;;;;;;;14.38;12.85;;;13.50;37.10;;;;;;4975868;28;20105;-82
2022/06/01 07:16:15;;;;;;;13.70;12.30;;;13.80;16.10;;;;;;4974297;28;20695;-81
2022/06/01 07:18:43;;;;;;;9.77;8.77;;;13.50;1.00;;;;;;5000718;28;20097;-81
2022/06/01 07:21:09;;;;;;;8.93;8.02;;;13.60;1.00;;;;;;4972085;28;20445;-81
2022/06/01 07:23:37;;;;;;;8.05;6.97;;;13.40;1.00;;;;;;4972500;28;20290;-81
2022/06/01 07:26:06;;;;;;;6.40;5.80;;;13.30;1.00;;;;;;4975134;28;20042;-81
2022/06/01 07:28:32;;;;;;;7.60;6.35;;;13.20;99.90;;;;;;4970868;28;20030;-81
2022/06/01 07:30:58;;;;;;;8.10;7.30;;;13.40;99.90;;;;;;4972023;28;20082;-81
2022/06/01 07:33:28;;;;;;;6.25;5.65;;;13.60;1.00;;;;;;4971984;28;20129;-81
2022/06/01 07:35:55;;;;;;;7.50;6.80;;;13.60;1.00;;;;;;4970173;28;20113;-81
2022/06/01 07:43:57;;;;;;;8.38;7.20;;;14.10;99.90;;;;;;4972420;28;20050;-81
2022/06/01 07:46:23;;;;;;;7.78;6.80;;;13.80;99.90;;;;;;5006141;28;20042;-81
2022/06/01 07:48:49;;;;;;;7.28;6.35;;;14.40;99.90;;;;;;4976821;28;20038;-81
2022/06/01 07:51:17;;;;;;;7.65;6.38;;;14.40;99.90;;;;;;5008365;28;20053;-81
2022/06/01 07:53:43;;;;;;;8.85;7.95;;;14.40;99.90;;;;;;4976640;28;20168;-81
2022/06/01 07:56:09;;;;;;;10.57;7.60;;;14.60;99.90;;;;;;4971149;28;20149;-79
2022/06/01 07:58:35;;;;;;;9.85;7.85;;;14.60;99.90;;;;;;4977280;28;20406;-81
2022/06/01 08:01:01;;;;;;;10.60;8.07;;;14.90;99.90;;;;;;4982711;28;20267;-81
2022/06/01 08:03:28;;;;;;;9.98;7.72;;;15.00;99.90;;;;;;5016780;28;20271;-81
2022/06/01 08:05:54;;;;;;;10.63;8.23;;;14.50;99.90;;;;;;4977680;28;20042;-81
2022/06/01 08:08:20;;;;;;;8.98;8.07;;;14.70;99.90;;;;;;5014064;28;20497;-81
2022/06/01 08:10:46;;;;;;;13.50;8.73;;;15.10;99.90;;;;;;4972053;28;20041;-81
2022/06/01 08:13:14;;;;;;;13.70;9.70;;;15.20;99.90;;;;;;4988853;28;20911;-81
2022/06/01 08:15:45;;;;;;;10.75;9.63;;;15.30;99.90;;;;;;4976540;28;20049;-81
2022/06/01 08:18:13;;;;;;;10.45;9.35;;;15.40;99.90;;;;;;4985824;28;20418;-81
2022/06/01 08:20:42;;;;;;;10.82;9.65;;;15.90;99.90;;;;;;4976272;28;20121;-81
2022/06/01 08:23:08;;;;;;;10.13;8.52;;;15.80;99.90;;;;;;4985686;28;20461;-81
2022/06/01 08:25:35;;;;;;;10.50;9.35;;;15.80;99.90;;;;;;5001851;28;20058;-81
2022/06/01 08:28:02;;;;;;;10.98;9.85;;;15.80;99.90;;;;;;5004833;28;20042;-81
2022/06/01 08:30:31;;;;;;;14.38;10.43;;;15.70;99.90;;;;;;5005559;28;20073;-81
2022/06/01 08:32:57;;;;;;;12.43;10.35;;;15.60;99.90;;;;;;5003540;28;20060;-81
2022/06/01 08:35:31;;;;;;;11.35;10.25;;;15.40;99.90;;;;;;4988595;28;20389;-81
2022/06/01 08:37:58;;;;;;;13.05;10.70;;;15.50;99.90;;;;;;4954929;28;20359;-81
2022/06/01 08:40:32;;;;;;;18.35;10.63;;;15.20;99.90;;;;;;4980993;28;20122;-83
2022/06/01 08:43:06;;;;;;;15.10;10.40;;;15.30;99.90;;;;;;4995134;28;20054;-83
2022/06/01 08:45:33;;;;;;;11.52;10.32;;;15.10;99.90;;;;;;5001036;28;20045;-82
2022/06/01 08:48:00;;;;;;;12.23;10.52;;;14.90;1.00;;;;;;4985605;28;20188;-81
2022/06/01 08:50:35;;;;;;;11.05;9.88;;;15.10;1.00;;;;;;4968653;28;20140;-81
2022/06/01 08:53:03;;;;;;;12.32;11.05;;;15.00;99.90;;;;;;4995804;28;20541;-81
2022/06/01 08:55:58;;;;;;;12.43;10.68;;;14.90;1.00;;;;;;4967396;28;20077;-81
2022/06/01 08:59:04;;;;;;;14.48;12.00;;;14.70;1.00;;;;;;4980659;28;20090;-81
2022/06/01 09:01:43;;;;;;;14.18;12.05;;;14.60;1.00;;;;;;4967071;28;20049;-81
2022/06/01 09:04:22;;;;;;;14.13;12.63;;;14.70;1.00;;;;;;4972143;28;20638;-81
2022/06/01 09:07:20;;;;;;;14.13;12.73;;;14.70;1.00;;;;;;4972620;28;20643;-81
2022/06/01 09:09:51;;;;;;;13.35;11.95;;;14.80;1.00;;;;;;5001793;28;20046;-81
2022/06/01 09:12:17;;;;;;;13.50;11.30;;;15.30;1.00;;;;;;4970094;28;20061;-81
2022/06/01 09:14:48;;;;;;;14.80;10.70;;;15.60;1.00;;;;;;4988538;28;20070;-81
2022/06/01 09:17:13;;;;;;;10.48;9.20;;;15.70;1.00;;;;;;4973316;28;20125;-81
2022/06/01 09:22:41;;;;;;;12.18;10.82;;;15.70;1.00;;;;;;4977025;28;20201;-82
2022/06/01 09:25:25;;;;;;;11.75;10.57;;;15.80;99.90;;;;;;4996957;28;20335;-81
2022/06/01 09:27:59;;;;;;;11.27;10.18;;;16.20;1.00;;;;;;4979060;28;20038;-81
2022/06/01 09:30:35;;;;;;;11.35;10.15;;;16.00;1.00;;;;;;5005042;28;20076;-81
2022/06/01 09:33:23;;;;;;;10.23;9.15;;;16.00;99.90;;;;;;4985745;28;20516;-81
2022/06/01 09:36:07;;;;;;;10.45;9.30;;;16.00;1.00;;;;;;5000703;28;21072;-81
2022/06/01 09:38:51;;;;;;;9.95;8.95;;;16.60;99.90;;;;;;5000175;28;20541;-81
2022/06/01 09:41:21;;;;;;;10.00;8.93;;;16.40;99.90;;;;;;5001979;28;20083;-81
2022/06/01 09:44:06;;;;;;;11.75;8.50;;;17.10;99.90;;;;;;4976098;28;20050;-81
2022/06/01 09:46:35;;;;;;;9.25;8.00;;;17.20;99.90;;;;;;4985495;28;20581;-81
2022/06/01 09:49:36;;;;;;;12.30;7.80;;;18.00;99.90;;;;;;4981262;28;20120;-83
2022/06/01 09:52:10;;;;;;;10.02;7.63;;;16.80;99.90;;;;;;5003782;28;20026;-84
2022/06/01 09:54:42;;;;;;;9.63;8.55;;;16.10;99.90;;;;;;4980011;28;20583;-83
2022/06/01 09:57:25;;;;;;;15.85;9.40;;;16.10;1.00;;;;;;4989814;28;20501;-84
2022/06/01 10:08:22;;;;;;;8.88;8.07;;;14.50;99.90;;;;;;4970902;28;20093;-82
2022/06/01 10:10:58;;;;;;;9.35;7.68;;;14.30;99.90;;;;;;4970791;28;20053;-82
2022/06/01 10:13:35;;;;;;;8.77;7.97;;;14.30;99.90;;;;;;5006922;28;20042;-82
2022/06/01 10:16:28;;;;;;;8.52;7.63;;;14.80;99.90;;;;;;4987107;28;20254;-82
2022/06/01 10:18:56;;;;;;;7.18;6.47;;;15.50;99.90;;;;;;5004414;28;20495;-81
2022/06/01 10:21:43;;;;;;;7.30;6.70;;;16.10;99.90;;;;;;5006460;28;20034;-81
2022/06/01 10:24:16;;;;;;;6.45;5.85;;;16.80;99.90;;;;;;5001959;28;20043;-81
2022/06/01 10:26:50;;;;;;;8.45;7.25;;;17.40;99.90;;;;;;4975477;28;20465;-81
2022/06/01 10:29:19;;;;;;;7.50;6.80;;;17.50;99.90;;;;;;5006407;28;20525;-81
2022/06/01 10:32:30;;;;;;;8.55;7.70;;;17.70;99.90;;;;;;5003572;28;20073;-81
2022/06/01 10:35:14;;;;;;;8.05;6.57;;;17.50;99.90;;;;;;4945956;28;20074;-81
2022/06/01 10:37:59;;;;;;;7.68;6.80;;;17.70;99.90;;;;;;5002780;28;20046;-81
2022/06/01 10:40:40;;;;;;;8.15;7.35;;;17.90;99.90;;;;;;4992868;28;20456;-81
2022/06/01 10:43:31;;;;;;;6.70;6.10;;;19.00;99.90;;;;;;4989936;28;20050;-81
2022/06/01 10:46:32;;;;;;;5.70;5.20;;;18.60;99.90;;;;;;5006706;28;20571;-81
2022/06/01 10:49:12;;;;;;;5.82;5.25;;;17.30;99.90;;;;;;4984263;28;20145;-81
2022/06/01 10:51:38;;;;;;;6.63;6.03;;;16.80;99.90;;;;;;4985908;28;20192;-81
2022/06/01 10:54:26;;;;;;;6.68;5.95;;;16.50;99.90;;;;;;4982491;28;20037;-81
2022/06/01 10:56:52;;;;;;;6.40;5.80;;;16.30;99.90;;;;;;4986535;28;20037;-81
2022/06/01 10:59:18;;;;;;;6.35;5.75;;;15.80;99.90;;;;;;4977449;28;20042;-81
2022/06/01 11:02:23;;;;;;;6.43;5.70;;;15.70;99.90;;;;;;4974083;28;20157;-81
2022/06/01 11:05:31;;;;;;;6.30;5.70;;;15.60;99.90;;;;;;4988426;28;20497;-81
2022/06/01 11:08:06;;;;;;;7.10;6.35;;;15.60;99.90;;;;;;4999832;28;20038;-81
2022/06/01 11:10:57;;;;;;;7.43;6.68;;;15.30;99.90;;;;;;4990864;28;20047;-81
2022/06/01 11:13:49;;;;;;;7.22;6.40;;;15.30;99.90;;;;;;4975512;28;20034;-81
2022/06/01 11:16:27;;;;;;;6.50;5.90;;;15.30;99.90;;;;;;4981374;28;20405;-81
2022/06/01 11:19:08;;;;;;;5.82;4.72;;;15.00;99.90;;;;;;4985767;28;20106;-81
2022/06/01 11:21:40;;;;;;;5.18;4.68;;;14.30;99.90;;;;;;4978693;28;20035;-82
2022/06/01 11:24:35;;;;;;;4.72;4.25;;;13.70;99.90;;;;;;4982315;28;20048;-81
2022/06/01 11:27:29;;;;;;;2.90;2.60;;;13.20;99.90;;;;;;4986464;28;20256;-84
2022/06/01 11:30:18;;;;;;;4.35;3.15;;;13.10;99.90;;;;;;4997020;28;20494;-83
2022/06/01 11:33:16;;;;;;;4.85;3.25;;;12.80;1.00;;;;;;4985210;28;20069;-84
2022/06/01 11:35:59;;;;;;;7.18;3.00;;;12.80;1.00;;;;;;4979008;28;20070;-84
2022/06/01 11:38:34;;;;;;;4.10;2.40;;;12.70;1.00;;;;;;5009793;28;20120;-85
2022/06/01 11:41:14;;;;;;;3.95;2.75;;;12.50;1.00;;;;;;5011472;28;20553;-83
2022/06/01 11:43:50;;;;;;;3.78;2.65;;;12.60;1.00;;;;;;4982721;28;20250;-84
2022/06/01 11:46:23;;;;;;;3.10;2.80;;;12.70;1.00;;;;;;4981305;28;20672;-83
2022/06/01 11:48:56;;;;;;;4.43;2.20;;;12.90;1.00;;;;;;4973971;28;20157;-84
2022/06/01 11:51:35;;;;;;;2.63;1.92;;;13.10;1.00;;;;;;4979399;28;20120;-84
2022/06/01 11:54:14;;;;;;;2.50;2.10;;;13.20;1.00;;;;;;4978722;28;20125;-84
2022/06/01 11:57:17;;;;;;;5.53;2.00;;;13.60;1.00;;;;;;4982544;28;20509;-83
2022/06/01 12:00:15;;;;;;;3.50;2.80;;;13.70;1.00;;;;;;4975030;28;20050;-82
2022/06/01 12:02:44;;;;;;;4.45;3.00;;;13.80;1.00;;;;;;4989067;28;20077;-82
2022/06/01 12:05:22;;;;;;;3.80;3.42;;;14.30;99.90;;;;;;5008518;28;20109;-82
2022/06/01 12:07:55;;;;;;;4.38;3.85;;;14.50;1.00;;;;;;5001987;28;20454;-82
2022/06/01 12:10:51;;;;;;;4.70;4.20;;;14.60;99.90;;;;;;4971795;28;20033;-81
2022/06/01 12:13:26;;;;;;;4.82;4.32;;;15.30;99.90;;;;;;4972978;28;20150;-81
2022/06/01 12:16:06;;;;;;;4.75;4.35;;;16.50;99.90;;;;;;5006796;28;20062;-81
2022/06/01 12:18:33;;;;;;;5.50;4.68;;;17.20;99.90;;;;;;4983307;28;20039;-81
2022/06/01 12:21:55;;;;;;;4.78;4.28;;;17.30;99.90;;;;;;4978977;28;20048;-81
2022/06/01 12:30:17;;;;;;;5.10;4.65;;;18.00;99.90;;;;;;4981957;28;20046;-81
2022/06/01 12:33:03;;;;;;;5.20;4.70;;;18.10;99.90;;;;;;4979966;28;20121;-82
2022/06/01 12:36:06;;;;;;;5.28;4.78;;;17.60;99.90;;;;;;4981915;28;20062;-82
2022/06/01 12:38:37;;;;;;;4.93;4.38;;;16.90;99.90;;;;;;4940505;28;20134;-81
2022/06/01 12:41:24;;;;;;;5.00;4.50;;;16.00;99.90;;;;;;5001478;28;20116;-82
2022/06/01 12:43:55;;;;;;;4.80;4.40;;;15.60;99.90;;;;;;4981624;28;20049;-82
2022/06/01 12:46:28;;;;;;;4.13;3.55;;;15.40;99.90;;;;;;5010141;28;20042;-81
2022/06/01 12:49:19;;;;;;;2.60;2.30;;;14.90;99.90;;;;;;4995746;28;20045;-83
2022/06/01 12:51:56;;;;;;;2.47;1.73;;;14.40;99.90;;;;;;4976945;28;20438;-84
2022/06/01 12:54:28;;;;;;;1.70;1.60;;;14.20;99.90;;;;;;5010710;28;20045;-82
2022/06/01 12:56:53;;;;;;;1.10;1.00;;;14.00;99.90;;;;;;4979548;28;20525;-82
2022/06/01 12:59:19;;;;;;;1.20;1.10;;;13.80;99.90;;;;;;4978997;28;20042;-82
2022/06/01 13:01:51;;;;;;;1.20;1.10;;;13.80;99.90;;;;;;4996435;28;20038;-82
2022/06/01 13:04:24;;;;;;;1.52;1.00;;;13.60;99.90;;;;;;4994218;28;20040;-81
2022/06/01 13:06:50;;;;;;;1.30;1.10;;;13.60;99.90;;;;;;4992410;28;20030;-82
2022/06/01 13:09:24;;;;;;;0.82;0.82;;;13.40;99.90;;;;;;5013002;28;20125;-82
2022/06/01 13:11:59;;;;;;;2.45;1.25;;;13.00;99.90;;;;;;4976681;28;20050;-83
2022/06/01 13:14:26;;;;;;;0.80;0.80;;;13.10;99.90;;;;;;4975334;28;20552;-83
2022/06/01 13:16:52;;;;;;;1.30;1.00;;;12.90;99.90;;;;;;5001431;28;20167;-83
2022/06/01 13:19:31;;;;;;;1.58;1.25;;;12.90;99.90;;;;;;5001754;28;20065;-84
2022/06/01 13:22:19;;;;;;;1.23;0.98;;;12.90;1.00;;;;;;4973408;28;20105;-83
2022/06/01 13:24:54;;;;;;;0.80;0.80;;;13.20;1.00;;;;;;4969978;28;20058;-83
2022/06/01 13:27:20;;;;;;;2.95;1.17;;;13.30;99.90;;;;;;4984494;28;20576;-84
2022/06/01 13:29:49;;;;;;;2.67;1.10;;;13.50;99.90;;;;;;4981629;28;20054;-84
2022/06/01 13:32:18;;;;;;;1.40;1.10;;;13.60;99.90;;;;;;4980494;28;20612;-83
2022/06/01 13:34:53;;;;;;;1.30;0.90;;;13.90;99.90;;;;;;4980911;28;20398;-83